sensor_id;sensor_type;location;lat;lon;timestamp;pressure;altitude;pressure_sealevel;temperature
27826;BMP280;15077;49.704;9.908;2022-11-20T00:02:25;97686.47;;;7.86
27826;BMP280;15077;49.704;9.908;2022-11-20T00:04:51;97676.38;;;7.86
27826;BMP280;15077;49.704;9.908;2022-11-20T00:07:17;97681.41;;;7.86
27826;BMP280;15077;49.704;9.908;2022-11-20T00:09:43;97685.59;;;7.87
27826;BMP280;15077;49.704;9.908;2022-11-20T00:12:08;97675.50;;;7.87
27826;BMP280;15077;49.704;9.908;2022-11-20T00:14:34;97672.13;;;7.87
27826;BMP280;15077;49.704;9.908;2022-11-20T00:17:00;97677.19;;;7.87
27826;BMP280;15077;49.704;9.908;2022-11-20T00:19:25;97674.72;;;7.85
27826;BMP280;15077;49.704;9.908;2022-11-20T00:21:51;97678.84;;;7.88
27826;BMP280;15077;49.704;9.908;2022-11-20T00:24:19;97672.97;;;7.87
27826;BMP280;15077;49.704;9.908;2022-11-20T00:26:45;97662.88;;;7.87
27826;BMP280;15077;49.704;9.908;2022-11-20T00:29:13;97663.69;;;7.88
27826;BMP280;15077;49.704;9.908;2022-11-20T00:31:38;97656.94;;;7.88
27826;BMP280;15077;49.704;9.908;2022-11-20T00:34:04;97655.25;;;7.89
27826;BMP280;15077;49.704;9.908;2022-11-20T00:36:32;97651.03;;;7.89
27826;BMP280;15077;49.704;9.908;2022-11-20T00:38:59;97655.25;;;7.89
27826;BMP280;15077;49.704;9.908;2022-11-20T00:41:26;97666.16;;;7.89
27826;BMP280;15077;49.704;9.908;2022-11-20T00:43:55;97657.84;;;7.87
27826;BMP280;15077;49.704;9.908;2022-11-20T00:46:24;97658.66;;;7.88
27826;BMP280;15077;49.704;9.908;2022-11-20T00:48:50;97662.88;;;7.87
27826;BMP280;15077;49.704;9.908;2022-11-20T00:51:19;97656.94;;;7.88
27826;BMP280;15077;49.704;9.908;2022-11-20T00:53:46;97664.50;;;7.88
27826;BMP280;15077;49.704;9.908;2022-11-20T00:56:15;97656.06;;;7.89
27826;BMP280;15077;49.704;9.908;2022-11-20T00:58:43;97654.41;;;7.88
27826;BMP280;15077;49.704;9.908;2022-11-20T01:01:15;97655.25;;;7.89
27826;BMP280;15077;49.704;9.908;2022-11-20T01:03:43;97645.16;;;7.89
27826;BMP280;15077;49.704;9.908;2022-11-20T01:06:18;97648.44;;;7.91
27826;BMP280;15077;49.704;9.908;2022-11-20T01:08:45;97647.75;;;7.87
27826;BMP280;15077;49.704;9.908;2022-11-20T01:11:18;97653.56;;;7.89
27826;BMP280;15077;49.704;9.908;2022-11-20T01:13:46;97643.47;;;7.89
27826;BMP280;15077;49.704;9.908;2022-11-20T01:16:16;97651.03;;;7.89
27826;BMP280;15077;49.704;9.908;2022-11-20T01:18:46;97653.56;;;7.89
27826;BMP280;15077;49.704;9.908;2022-11-20T01:21:21;97656.88;;;7.90
27826;BMP280;15077;49.704;9.908;2022-11-20T01:23:48;97666.16;;;7.89
27826;BMP280;15077;49.704;9.908;2022-11-20T01:26:16;97663.59;;;7.91
27826;BMP280;15077;49.704;9.908;2022-11-20T01:28:42;97671.22;;;7.89
27826;BMP280;15077;49.704;9.908;2022-11-20T01:31:14;97666.16;;;7.89
27826;BMP280;15077;49.704;9.908;2022-11-20T01:33:40;97661.13;;;7.89
27826;BMP280;15077;49.704;9.908;2022-11-20T01:36:07;97668.69;;;7.89
27826;BMP280;15077;49.704;9.908;2022-11-20T01:38:33;97661.13;;;7.89
27826;BMP280;15077;49.704;9.908;2022-11-20T01:40:58;97655.25;;;7.89
27826;BMP280;15077;49.704;9.908;2022-11-20T01:43:24;97656.06;;;7.89
27826;BMP280;15077;49.704;9.908;2022-11-20T01:48:44;97656.13;;;7.88
27826;BMP280;15077;49.704;9.908;2022-11-20T01:51:45;97659.47;;;7.88
27826;BMP280;15077;49.704;9.908;2022-11-20T01:54:18;97652.81;;;7.87
27826;BMP280;15077;49.704;9.908;2022-11-20T01:56:45;97646.03;;;7.88
27826;BMP280;15077;49.704;9.908;2022-11-20T01:59:15;97645.22;;;7.87
27826;BMP280;15077;49.704;9.908;2022-11-20T02:01:41;97642.72;;;7.87
27826;BMP280;15077;49.704;9.908;2022-11-20T02:04:08;97644.34;;;7.88
27826;BMP280;15077;49.704;9.908;2022-11-20T02:06:44;97642.72;;;7.87
27826;BMP280;15077;49.704;9.908;2022-11-20T02:09:11;97639.28;;;7.88
27826;BMP280;15077;49.704;9.908;2022-11-20T02:11:37;97635.13;;;7.87
27826;BMP280;15077;49.704;9.908;2022-11-20T02:14:03;97642.72;;;7.87
27826;BMP280;15077;49.704;9.908;2022-11-20T02:16:41;97639.28;;;7.88
27826;BMP280;15077;49.704;9.908;2022-11-20T02:19:22;97637.59;;;7.89
27826;BMP280;15077;49.704;9.908;2022-11-20T02:24:25;97639.28;;;7.88
27826;BMP280;15077;49.704;9.908;2022-11-20T02:26:54;97648.56;;;7.88
27826;BMP280;15077;49.704;9.908;2022-11-20T02:32:27;97653.59;;;7.88
27826;BMP280;15077;49.704;9.908;2022-11-20T02:34:53;97648.63;;;7.86
27826;BMP280;15077;49.704;9.908;2022-11-20T02:37:19;97640.19;;;7.87
27826;BMP280;15077;49.704;9.908;2022-11-20T02:39:50;97641.06;;;7.86
27826;BMP280;15077;49.704;9.908;2022-11-20T02:42:16;97651.16;;;7.86
27826;BMP280;15077;49.704;9.908;2022-11-20T02:44:42;97642.72;;;7.87
27826;BMP280;15077;49.704;9.908;2022-11-20T02:47:08;97647.75;;;7.87
27826;BMP280;15077;49.704;9.908;2022-11-20T02:49:33;97636.00;;;7.86
27826;BMP280;15077;49.704;9.908;2022-11-20T02:51:59;97636.00;;;7.86
27826;BMP280;15077;49.704;9.908;2022-11-20T02:54:25;97638.53;;;7.86
27826;BMP280;15077;49.704;9.908;2022-11-20T02:56:51;97632.63;;;7.87
27826;BMP280;15077;49.704;9.908;2022-11-20T02:59:17;97638.53;;;7.86
27826;BMP280;15077;49.704;9.908;2022-11-20T03:01:42;97636.00;;;7.86
27826;BMP280;15077;49.704;9.908;2022-11-20T03:04:08;97640.19;;;7.87
27826;BMP280;15077;49.704;9.908;2022-11-20T03:06:34;97633.47;;;7.86
27826;BMP280;15077;49.704;9.908;2022-11-20T03:09:00;97625.09;;;7.86
27826;BMP280;15077;49.704;9.908;2022-11-20T03:11:25;97636.00;;;7.86
27826;BMP280;15077;49.704;9.908;2022-11-20T03:13:51;97636.81;;;7.87
27826;BMP280;15077;49.704;9.908;2022-11-20T03:16:19;97627.63;;;7.86
27826;BMP280;15077;49.704;9.908;2022-11-20T03:18:45;97625.09;;;7.86
27826;BMP280;15077;49.704;9.908;2022-11-20T03:21:12;97620.94;;;7.85
27826;BMP280;15077;49.704;9.908;2022-11-20T03:23:38;97629.31;;;7.85
27826;BMP280;15077;49.704;9.908;2022-11-20T03:28:45;97617.59;;;7.84
27826;BMP280;15077;49.704;9.908;2022-11-20T03:31:13;97617.59;;;7.84
27826;BMP280;15077;49.704;9.908;2022-11-20T03:33:40;97612.53;;;7.84
27826;BMP280;15077;49.704;9.908;2022-11-20T03:36:08;97612.53;;;7.84
27826;BMP280;15077;49.704;9.908;2022-11-20T03:38:34;97613.41;;;7.83
27826;BMP280;15077;49.704;9.908;2022-11-20T03:41:01;97617.59;;;7.84
27826;BMP280;15077;49.704;9.908;2022-11-20T03:43:27;97611.69;;;7.84
27826;BMP280;15077;49.704;9.908;2022-11-20T03:45:53;97603.38;;;7.82
27826;BMP280;15077;49.704;9.908;2022-11-20T03:48:19;97613.47;;;7.82
27826;BMP280;15077;49.704;9.908;2022-11-20T03:50:44;97610.09;;;7.81
27826;BMP280;15077;49.704;9.908;2022-11-20T03:53:13;97616.81;;;7.82
27826;BMP280;15077;49.704;9.908;2022-11-20T03:55:39;97609.34;;;7.79
27826;BMP280;15077;49.704;9.908;2022-11-20T03:58:05;97611.00;;;7.80
27826;BMP280;15077;49.704;9.908;2022-11-20T04:00:30;97608.50;;;7.80
27826;BMP280;15077;49.704;9.908;2022-11-20T04:03:02;97610.16;;;7.80
27826;BMP280;15077;49.704;9.908;2022-11-20T04:05:28;97609.34;;;7.79
27826;BMP280;15077;49.704;9.908;2022-11-20T04:07:54;97611.94;;;7.78
27826;BMP280;15077;49.704;9.908;2022-11-20T04:10:19;97603.63;;;7.76
27826;BMP280;15077;49.704;9.908;2022-11-20T04:12:45;97598.63;;;7.74
27826;BMP280;15077;49.704;9.908;2022-11-20T04:15:11;97602.81;;;7.74
27826;BMP280;15077;49.704;9.908;2022-11-20T04:17:38;97610.38;;;7.74
27826;BMP280;15077;49.704;9.908;2022-11-20T04:20:04;97604.53;;;7.73
27826;BMP280;15077;49.704;9.908;2022-11-20T04:22:30;97605.41;;;7.72
27826;BMP280;15077;49.704;9.908;2022-11-20T04:24:56;97598.69;;;7.73
27826;BMP280;15077;49.704;9.908;2022-11-20T04:27:21;97604.53;;;7.73
27826;BMP280;15077;49.704;9.908;2022-11-20T04:29:47;97596.97;;;7.73
27826;BMP280;15077;49.704;9.908;2022-11-20T04:32:12;97589.41;;;7.73
27826;BMP280;15077;49.704;9.908;2022-11-20T04:34:38;97589.41;;;7.73
27826;BMP280;15077;49.704;9.908;2022-11-20T04:37:04;97589.41;;;7.73
27826;BMP280;15077;49.704;9.908;2022-11-20T04:39:29;97589.41;;;7.73
27826;BMP280;15077;49.704;9.908;2022-11-20T04:41:55;97590.28;;;7.72
27826;BMP280;15077;49.704;9.908;2022-11-20T04:44:39;97593.63;;;7.73
27826;BMP280;15077;49.704;9.908;2022-11-20T04:47:05;97588.66;;;7.72
27826;BMP280;15077;49.704;9.908;2022-11-20T04:49:31;97591.94;;;7.73
27826;BMP280;15077;49.704;9.908;2022-11-20T04:51:57;97592.72;;;7.74
27826;BMP280;15077;49.704;9.908;2022-11-20T04:54:23;97579.38;;;7.72
27826;BMP280;15077;49.704;9.908;2022-11-20T04:56:49;97580.19;;;7.72
27826;BMP280;15077;49.704;9.908;2022-11-20T04:59:15;97583.53;;;7.73
27826;BMP280;15077;49.704;9.908;2022-11-20T05:01:41;97584.34;;;7.73
27826;BMP280;15077;49.704;9.908;2022-11-20T05:04:07;97583.53;;;7.73
27826;BMP280;15077;49.704;9.908;2022-11-20T05:06:33;97581.78;;;7.75
27826;BMP280;15077;49.704;9.908;2022-11-20T05:08:58;97581.78;;;7.75
27826;BMP280;15077;49.704;9.908;2022-11-20T05:11:24;97576.72;;;7.75
27826;BMP280;15077;49.704;9.908;2022-11-20T05:13:51;97582.59;;;7.75
27826;BMP280;15077;49.704;9.908;2022-11-20T05:16:19;97577.53;;;7.75
27826;BMP280;15077;49.704;9.908;2022-11-20T05:18:46;97569.09;;;7.76
27826;BMP280;15077;49.704;9.908;2022-11-20T05:21:12;97573.34;;;7.76
27826;BMP280;15077;49.704;9.908;2022-11-20T05:23:39;97577.53;;;7.75
27826;BMP280;15077;49.704;9.908;2022-11-20T05:26:06;97564.19;;;7.73
27826;BMP280;15077;49.704;9.908;2022-11-20T05:28:33;97563.31;;;7.74
27826;BMP280;15077;49.704;9.908;2022-11-20T05:31:13;97560.78;;;7.74
27826;BMP280;15077;49.704;9.908;2022-11-20T05:33:40;97569.22;;;7.73
27826;BMP280;15077;49.704;9.908;2022-11-20T05:36:07;97570.16;;;7.71
27826;BMP280;15077;49.704;9.908;2022-11-20T05:38:32;97564.28;;;7.71
27826;BMP280;15077;49.704;9.908;2022-11-20T05:41:15;97576.03;;;7.72
27826;BMP280;15077;49.704;9.908;2022-11-20T05:43:42;97586.94;;;7.72
27826;BMP280;15077;49.704;9.908;2022-11-20T05:46:10;97578.56;;;7.72
27826;BMP280;15077;49.704;9.908;2022-11-20T05:48:37;97585.16;;;7.74
27826;BMP280;15077;49.704;9.908;2022-11-20T05:51:05;97575.06;;;7.74
27826;BMP280;15077;49.704;9.908;2022-11-20T05:53:32;97574.22;;;7.75
27826;BMP280;15077;49.704;9.908;2022-11-20T05:56:03;97570.81;;;7.76
27826;BMP280;15077;49.704;9.908;2022-11-20T05:58:30;97577.53;;;7.75
27826;BMP280;15077;49.704;9.908;2022-11-20T06:01:22;97568.34;;;7.74
27826;BMP280;15077;49.704;9.908;2022-11-20T06:03:48;97569.09;;;7.76
27826;BMP280;15077;49.704;9.908;2022-11-20T06:06:16;97569.09;;;7.76
27826;BMP280;15077;49.704;9.908;2022-11-20T06:08:43;97569.91;;;7.77
27826;BMP280;15077;49.704;9.908;2022-11-20T06:11:11;97572.50;;;7.75
27826;BMP280;15077;49.704;9.908;2022-11-20T06:13:38;97565.78;;;7.76
27826;BMP280;15077;49.704;9.908;2022-11-20T06:16:04;97569.09;;;7.76
27826;BMP280;15077;49.704;9.908;2022-11-20T06:18:30;97578.31;;;7.77
27826;BMP280;15077;49.704;9.908;2022-11-20T06:21:15;97564.81;;;7.78
27826;BMP280;15077;49.704;9.908;2022-11-20T06:23:42;97562.28;;;7.78
27826;BMP280;15077;49.704;9.908;2022-11-20T06:26:14;97568.19;;;7.79
27826;BMP280;15077;49.704;9.908;2022-11-20T06:28:40;97570.66;;;7.80
27826;BMP280;15077;49.704;9.908;2022-11-20T06:31:07;97570.66;;;7.80
27826;BMP280;15077;49.704;9.908;2022-11-20T06:33:33;97564.69;;;7.81
27826;BMP280;15077;49.704;9.908;2022-11-20T06:36:00;97569.75;;;7.81
27826;BMP280;15077;49.704;9.908;2022-11-20T06:38:26;97573.09;;;7.82
27826;BMP280;15077;49.704;9.908;2022-11-20T06:40:53;97571.34;;;7.84
27826;BMP280;15077;49.704;9.908;2022-11-20T06:43:19;97568.00;;;7.83
27826;BMP280;15077;49.704;9.908;2022-11-20T06:45:44;97572.19;;;7.84
27826;BMP280;15077;49.704;9.908;2022-11-20T06:48:10;97580.50;;;7.86
27826;BMP280;15077;49.704;9.908;2022-11-20T06:50:37;97574.59;;;7.87
27826;BMP280;15077;49.704;9.908;2022-11-20T06:53:03;97574.66;;;7.86
27826;BMP280;15077;49.704;9.908;2022-11-20T06:55:29;97580.50;;;7.86
27826;BMP280;15077;49.704;9.908;2022-11-20T06:57:55;97581.31;;;7.87
27826;BMP280;15077;49.704;9.908;2022-11-20T07:00:21;97573.75;;;7.87
27826;BMP280;15077;49.704;9.908;2022-11-20T07:02:47;97578.72;;;7.88
27826;BMP280;15077;49.704;9.908;2022-11-20T07:05:12;97584.63;;;7.89
27826;BMP280;15077;49.704;9.908;2022-11-20T07:07:38;97576.22;;;7.88
27826;BMP280;15077;49.704;9.908;2022-11-20T07:10:04;97582.91;;;7.89
27826;BMP280;15077;49.704;9.908;2022-11-20T07:12:30;97583.72;;;7.90
27826;BMP280;15077;49.704;9.908;2022-11-20T07:14:55;97582.91;;;7.89
27826;BMP280;15077;49.704;9.908;2022-11-20T07:17:22;97586.25;;;7.90
27826;BMP280;15077;49.704;9.908;2022-11-20T07:19:47;97585.38;;;7.91
27826;BMP280;15077;49.704;9.908;2022-11-20T07:22:13;97584.56;;;7.90
27826;BMP280;15077;49.704;9.908;2022-11-20T07:24:39;97582.84;;;7.91
27826;BMP280;15077;49.704;9.908;2022-11-20T07:27:04;97574.47;;;7.90
27826;BMP280;15077;49.704;9.908;2022-11-20T07:29:30;97571.94;;;7.90
27826;BMP280;15077;49.704;9.908;2022-11-20T07:31:56;97577.00;;;7.90
27826;BMP280;15077;49.704;9.908;2022-11-20T07:34:22;97574.41;;;7.92
27826;BMP280;15077;49.704;9.908;2022-11-20T07:36:48;97581.91;;;7.93
27826;BMP280;15077;49.704;9.908;2022-11-20T07:39:14;97565.94;;;7.93
27826;BMP280;15077;49.704;9.908;2022-11-20T07:41:39;97576.03;;;7.93
27826;BMP280;15077;49.704;9.908;2022-11-20T07:44:05;97576.88;;;7.93
27826;BMP280;15077;49.704;9.908;2022-11-20T07:46:31;97563.38;;;7.94
27826;BMP280;15077;49.704;9.908;2022-11-20T07:48:56;97569.25;;;7.95
27826;BMP280;15077;49.704;9.908;2022-11-20T07:51:22;97572.59;;;7.95
27826;BMP280;15077;49.704;9.908;2022-11-20T07:53:51;97570.06;;;7.95
27826;BMP280;15077;49.704;9.908;2022-11-20T07:56:16;97559.97;;;7.95
27826;BMP280;15077;49.704;9.908;2022-11-20T07:58:42;97563.25;;;7.97
27826;BMP280;15077;49.704;9.908;2022-11-20T08:01:08;97574.19;;;7.98
27826;BMP280;15077;49.704;9.908;2022-11-20T08:03:34;97569.94;;;7.98
27826;BMP280;15077;49.704;9.908;2022-11-20T08:06:00;97575.00;;;7.98
27826;BMP280;15077;49.704;9.908;2022-11-20T08:08:27;97585.09;;;7.98
27826;BMP280;15077;49.704;9.908;2022-11-20T08:10:53;97576.66;;;7.99
27826;BMP280;15077;49.704;9.908;2022-11-20T08:13:39;97588.34;;;8.00
27826;BMP280;15077;49.704;9.908;2022-11-20T08:16:23;97596.81;;;7.99
27826;BMP280;15077;49.704;9.908;2022-11-20T08:18:49;97596.81;;;7.99
27826;BMP280;15077;49.704;9.908;2022-11-20T08:21:15;97598.44;;;8.00
27826;BMP280;15077;49.704;9.908;2022-11-20T08:23:40;97604.34;;;8.01
27826;BMP280;15077;49.704;9.908;2022-11-20T08:26:06;97600.09;;;8.01
27826;BMP280;15077;49.704;9.908;2022-11-20T08:28:31;97600.91;;;8.02
27826;BMP280;15077;49.704;9.908;2022-11-20T08:30:59;97596.72;;;8.02
27826;BMP280;15077;49.704;9.908;2022-11-20T08:33:25;97598.34;;;8.03
27826;BMP280;15077;49.704;9.908;2022-11-20T08:35:50;97603.38;;;8.03
27826;BMP280;15077;49.704;9.908;2022-11-20T08:38:16;97598.34;;;8.03
27826;BMP280;15077;49.704;9.908;2022-11-20T08:40:42;97592.41;;;8.04
27826;BMP280;15077;49.704;9.908;2022-11-20T08:43:27;97593.28;;;8.03
27826;BMP280;15077;49.704;9.908;2022-11-20T08:45:53;97596.59;;;8.05
27826;BMP280;15077;49.704;9.908;2022-11-20T08:48:21;97584.84;;;8.04
27826;BMP280;15077;49.704;9.908;2022-11-20T08:50:46;97588.13;;;8.06
27826;BMP280;15077;49.704;9.908;2022-11-20T08:53:12;97580.50;;;8.08
27826;BMP280;15077;49.704;9.908;2022-11-20T08:55:38;97584.72;;;8.07
27826;BMP280;15077;49.704;9.908;2022-11-20T08:58:06;97581.34;;;8.08
27826;BMP280;15077;49.704;9.908;2022-11-20T09:00:32;97584.59;;;8.10
27826;BMP280;15077;49.704;9.908;2022-11-20T09:02:58;97581.22;;;8.11
27826;BMP280;15077;49.704;9.908;2022-11-20T09:05:24;97582.88;;;8.12
27826;BMP280;15077;49.704;9.908;2022-11-20T09:07:50;97584.53;;;8.13
27826;BMP280;15077;49.704;9.908;2022-11-20T09:10:15;97574.44;;;8.13
27826;BMP280;15077;49.704;9.908;2022-11-20T09:12:41;97576.03;;;8.16
27826;BMP280;15077;49.704;9.908;2022-11-20T09:15:07;97575.13;;;8.17
27826;BMP280;15077;49.704;9.908;2022-11-20T09:17:33;97581.00;;;8.17
27826;BMP280;15077;49.704;9.908;2022-11-20T09:19:58;97578.44;;;8.19
27826;BMP280;15077;49.704;9.908;2022-11-20T09:22:24;97577.47;;;8.21
27826;BMP280;15077;49.704;9.908;2022-11-20T09:24:49;97575.84;;;8.20
27826;BMP280;15077;49.704;9.908;2022-11-20T09:27:15;97573.25;;;8.22
27826;BMP280;15077;49.704;9.908;2022-11-20T09:29:45;97572.34;;;8.22
27826;BMP280;15077;49.704;9.908;2022-11-20T09:32:11;97594.25;;;8.22
27826;BMP280;15077;49.704;9.908;2022-11-20T09:34:37;97591.69;;;8.23
27826;BMP280;15077;49.704;9.908;2022-11-20T09:37:02;97587.44;;;8.24
27826;BMP280;15077;49.704;9.908;2022-11-20T09:39:28;97588.28;;;8.24
27826;BMP280;15077;49.704;9.908;2022-11-20T09:42:08;97594.13;;;8.25
27826;BMP280;15077;49.704;9.908;2022-11-20T09:47:16;97613.47;;;8.26
27826;BMP280;15077;49.704;9.908;2022-11-20T09:50:02;97609.28;;;8.25
27826;BMP280;15077;49.704;9.908;2022-11-20T09:55:02;97626.16;;;8.24
27826;BMP280;15077;49.704;9.908;2022-11-20T09:57:37;97631.25;;;8.23
27826;BMP280;15077;49.704;9.908;2022-11-20T10:00:06;97626.16;;;8.24
27826;BMP280;15077;49.704;9.908;2022-11-20T10:03:03;97628.66;;;8.24
27826;BMP280;15077;49.704;9.908;2022-11-20T10:05:44;97628.66;;;8.24
27826;BMP280;15077;49.704;9.908;2022-11-20T10:10:45;97617.59;;;8.27
27826;BMP280;15077;49.704;9.908;2022-11-20T10:19:13;97598.81;;;8.34
27826;BMP280;15077;49.704;9.908;2022-11-20T10:24:56;97594.94;;;8.47
27826;BMP280;15077;49.704;9.908;2022-11-20T10:30:01;97587.63;;;8.61
27826;BMP280;15077;49.704;9.908;2022-11-20T10:32:39;97591.53;;;8.68
27826;BMP280;15077;49.704;9.908;2022-11-20T10:35:27;97590.53;;;8.71
27826;BMP280;15077;49.704;9.908;2022-11-20T10:37:57;97593.69;;;8.76
27826;BMP280;15077;49.704;9.908;2022-11-20T10:40:40;97579.19;;;8.81
27826;BMP280;15077;49.704;9.908;2022-11-20T10:43:13;97582.34;;;8.86
27826;BMP280;15077;49.704;9.908;2022-11-20T10:45:49;97575.38;;;8.91
27826;BMP280;15077;49.704;9.908;2022-11-20T10:48:24;97586.13;;;8.96
27826;BMP280;15077;49.704;9.908;2022-11-20T10:51:03;97578.28;;;9.02
27826;BMP280;15077;49.704;9.908;2022-11-20T10:53:43;97581.22;;;9.12
27826;BMP280;15077;49.704;9.908;2022-11-20T11:01:55;97570.25;;;9.31
27826;BMP280;15077;49.704;9.908;2022-11-20T11:04:38;97566.78;;;9.33
27826;BMP280;15077;49.704;9.908;2022-11-20T11:07:10;97554.28;;;9.30
27826;BMP280;15077;49.704;9.908;2022-11-20T11:09:48;97560.91;;;9.33
27826;BMP280;15077;49.704;9.908;2022-11-20T11:12:15;97555.09;;;9.31
27826;BMP280;15077;49.704;9.908;2022-11-20T11:14:49;97561.06;;;9.30
27826;BMP280;15077;49.704;9.908;2022-11-20T11:17:31;97555.22;;;9.28
27826;BMP280;15077;49.704;9.908;2022-11-20T11:20:02;97571.44;;;9.24
27826;BMP280;15077;49.704;9.908;2022-11-20T11:22:32;97566.47;;;9.21
27826;BMP280;15077;49.704;9.908;2022-11-20T11:24:58;97563.22;;;9.19
27826;BMP280;15077;49.704;9.908;2022-11-20T11:27:24;97554.03;;;9.17
27826;BMP280;15077;49.704;9.908;2022-11-20T11:30:01;97555.75;;;9.16
27826;BMP280;15077;49.704;9.908;2022-11-20T11:32:27;97561.69;;;9.15
27826;BMP280;15077;49.704;9.908;2022-11-20T11:35:01;97557.53;;;9.14
27826;BMP280;15077;49.704;9.908;2022-11-20T11:37:33;97553.34;;;9.13
27826;BMP280;15077;49.704;9.908;2022-11-20T11:40:00;97546.66;;;9.12
27826;BMP280;15077;49.704;9.908;2022-11-20T11:42:27;97552.47;;;9.14
27826;BMP280;15077;49.704;9.908;2022-11-20T11:44:57;97548.31;;;9.13
27826;BMP280;15077;49.704;9.908;2022-11-20T11:55:49;97541.84;;;9.06
27826;BMP280;15077;49.704;9.908;2022-11-20T11:58:48;97540.25;;;9.05
27826;BMP280;15077;49.704;9.908;2022-11-20T12:01:29;97541.06;;;9.06
27826;BMP280;15077;49.704;9.908;2022-11-20T12:06:30;97530.00;;;9.08
27826;BMP280;15077;49.704;9.908;2022-11-20T12:09:05;97534.16;;;9.09
27826;BMP280;15077;49.704;9.908;2022-11-20T12:11:45;97530.75;;;9.10
27826;BMP280;15077;49.704;9.908;2022-11-20T12:14:19;97527.34;;;9.11
27826;BMP280;15077;49.704;9.908;2022-11-20T12:16:49;97521.38;;;9.12
27826;BMP280;15077;49.704;9.908;2022-11-20T12:19:15;97516.31;;;9.12
27826;BMP280;15077;49.704;9.908;2022-11-20T12:24:34;97522.97;;;9.15
27826;BMP280;15077;49.704;9.908;2022-11-20T12:32:31;97532.94;;;9.18
27826;BMP280;15077;49.704;9.908;2022-11-20T12:37:41;97529.47;;;9.20
27826;BMP280;15077;49.704;9.908;2022-11-20T12:40:37;97527.69;;;9.22
27826;BMP280;15077;49.704;9.908;2022-11-20T12:43:24;97520.94;;;9.22
27826;BMP280;15077;49.704;9.908;2022-11-20T12:51:48;97513.34;;;9.22
27826;BMP280;15077;49.704;9.908;2022-11-20T12:54:59;97515.81;;;9.24
27826;BMP280;15077;49.704;9.908;2022-11-20T12:57:45;97515.81;;;9.24
27826;BMP280;15077;49.704;9.908;2022-11-20T13:00:17;97509.84;;;9.25
27826;BMP280;15077;49.704;9.908;2022-11-20T13:03:45;97508.09;;;9.27
27826;BMP280;15077;49.704;9.908;2022-11-20T13:06:04;97513.16;;;9.27
27826;BMP280;15077;49.704;9.908;2022-11-20T13:08:36;97507.19;;;9.28
27826;BMP280;15077;49.704;9.908;2022-11-20T13:11:17;97508.81;;;9.29
27826;BMP280;15077;49.704;9.908;2022-11-20T13:13:53;97501.16;;;9.30
27826;BMP280;15077;49.704;9.908;2022-11-20T13:17:04;97511.22;;;9.32
27826;BMP280;15077;49.704;9.908;2022-11-20T13:19:22;97509.44;;;9.34
27826;BMP280;15077;49.704;9.908;2022-11-20T13:21:49;97511.88;;;9.35
27826;BMP280;15077;49.704;9.908;2022-11-20T13:26:44;97508.41;;;9.38
27826;BMP280;15077;49.704;9.908;2022-11-20T13:29:19;97507.47;;;9.40
27826;BMP280;15077;49.704;9.908;2022-11-20T13:31:47;97507.41;;;9.42
27826;BMP280;15077;49.704;9.908;2022-11-20T13:34:26;97505.59;;;9.44
27826;BMP280;15077;49.704;9.908;2022-11-20T13:36:55;97504.72;;;9.45
27826;BMP280;15077;49.704;9.908;2022-11-20T13:39:39;97513.06;;;9.47
27826;BMP280;15077;49.704;9.908;2022-11-20T13:44:39;97496.09;;;9.49
27826;BMP280;15077;49.704;9.908;2022-11-20T13:47:21;97491.81;;;9.51
27826;BMP280;15077;49.704;9.908;2022-11-20T13:49:47;97485.91;;;9.50
27826;BMP280;15077;49.704;9.908;2022-11-20T13:55:42;97498.41;;;9.53
27826;BMP280;15077;49.704;9.908;2022-11-20T13:58:40;97500.06;;;9.54
27826;BMP280;15077;49.704;9.908;2022-11-20T14:01:15;97505.94;;;9.55
27826;BMP280;15077;49.704;9.908;2022-11-20T14:03:42;97507.44;;;9.59
27826;BMP280;15077;49.704;9.908;2022-11-20T14:06:16;97503.19;;;9.59
27826;BMP280;15077;49.704;9.908;2022-11-20T14:08:47;97487.56;;;9.51
27826;BMP280;15077;49.704;9.908;2022-11-20T14:11:16;97490.28;;;9.47
27826;BMP280;15077;49.704;9.908;2022-11-20T14:16:24;97495.69;;;9.39
27826;BMP280;15077;49.704;9.908;2022-11-20T14:18:50;97494.91;;;9.39
27826;BMP280;15077;49.704;9.908;2022-11-20T14:21:29;97494.06;;;9.38
27826;BMP280;15077;49.704;9.908;2022-11-20T14:24:05;97492.44;;;9.37
27826;BMP280;15077;49.704;9.908;2022-11-20T14:26:32;97492.44;;;9.37
27826;BMP280;15077;49.704;9.908;2022-11-20T14:28:58;97482.31;;;9.37
27826;BMP280;15077;49.704;9.908;2022-11-20T14:31:26;97492.38;;;9.39
27826;BMP280;15077;49.704;9.908;2022-11-20T14:33:53;97481.34;;;9.40
27826;BMP280;15077;49.704;9.908;2022-11-20T14:36:22;97487.16;;;9.42
27826;BMP280;15077;49.704;9.908;2022-11-20T14:38:49;97479.59;;;9.42
27826;BMP280;15077;49.704;9.908;2022-11-20T14:41:21;97482.84;;;9.44
27826;BMP280;15077;49.704;9.908;2022-11-20T14:43:56;97478.53;;;9.46
27826;BMP280;15077;49.704;9.908;2022-11-20T14:46:22;97476.84;;;9.46
27826;BMP280;15077;49.704;9.908;2022-11-20T14:48:55;97466.72;;;9.46
27826;BMP280;15077;49.704;9.908;2022-11-20T14:51:37;97468.28;;;9.49
27826;BMP280;15077;49.704;9.908;2022-11-20T14:54:10;97465.81;;;9.47
27826;BMP280;15077;49.704;9.908;2022-11-20T14:56:36;97455.75;;;9.46
27826;BMP280;15077;49.704;9.908;2022-11-20T14:59:01;97460.00;;;9.45
27826;BMP280;15077;49.704;9.908;2022-11-20T15:01:29;97460.75;;;9.47
27826;BMP280;15077;49.704;9.908;2022-11-20T15:04:10;97450.72;;;9.46
27826;BMP280;15077;49.704;9.908;2022-11-20T15:06:37;97457.41;;;9.47
27826;BMP280;15077;49.704;9.908;2022-11-20T15:09:04;97456.53;;;9.48
27826;BMP280;15077;49.704;9.908;2022-11-20T15:11:34;97454.00;;;9.48
27826;BMP280;15077;49.704;9.908;2022-11-20T15:14:04;97448.94;;;9.48
27826;BMP280;15077;49.704;9.908;2022-11-20T15:16:31;97447.22;;;9.48
27826;BMP280;15077;49.704;9.908;2022-11-20T15:18:57;97440.44;;;9.49
27826;BMP280;15077;49.704;9.908;2022-11-20T15:21:23;97442.09;;;9.50
27826;BMP280;15077;49.704;9.908;2022-11-20T15:23:49;97437.03;;;9.50
27826;BMP280;15077;49.704;9.908;2022-11-20T15:26:20;97434.44;;;9.51
27826;BMP280;15077;49.704;9.908;2022-11-20T15:28:48;97436.09;;;9.52
27826;BMP280;15077;49.704;9.908;2022-11-20T15:31:21;97426.78;;;9.53
27826;BMP280;15077;49.704;9.908;2022-11-20T15:33:47;97425.13;;;9.52
27826;BMP280;15077;49.704;9.908;2022-11-20T15:36:13;97420.06;;;9.52
27826;BMP280;15077;49.704;9.908;2022-11-20T15:38:39;97420.06;;;9.52
27826;BMP280;15077;49.704;9.908;2022-11-20T15:41:05;97420.91;;;9.52
27826;BMP280;15077;49.704;9.908;2022-11-20T15:43:30;97415.84;;;9.52
27826;BMP280;15077;49.704;9.908;2022-11-20T15:46:00;97421.72;;;9.53
27826;BMP280;15077;49.704;9.908;2022-11-20T15:48:29;97419.19;;;9.53
27826;BMP280;15077;49.704;9.908;2022-11-20T15:51:03;97422.59;;;9.52